Kezdőlap
METAR-TAF:

METAR-TAF

Repülőterek :

Yeovilton, Anglia

földrajzi szélesség: 51-00N, földrajzi hosszúság: 002-38W, magasság: 23 m

Jelenlegi meteorológiai megfigyelések

A jelentés 1 órával és 7 perccel ezelõtt készült, 22:50 UTC
Délnyugati szél 10 kt
Hőmérséklet 10°C
Páratartalom 76%
Légköri nyomás 1021 hPa
Látótávolság 10 km, vagy több

METAR: EGDY 222250Z AUTO 22010KT 9999 OVC080/// 10/06 Q1021

Idő: 23:57 (23:57 UTC)


TAF: hiányzik

Meteorológiai megfigyelések és előrejelzések több, mint 4000 repülőtéren (METAR és TAF jelentéseket).

A térképen piros és sárga pontok jelzik az elérhető meteorológiai állomásokat.

Mozgassa az egeret a pont fölött, hogy megjelenjen az állomás neve.

Azután kattintson az időjárási megfigyelések és előrejelzések megtekintéséhez.

A térkép megváltoztatása: kattintson a fekete keresztel jelölt zöld gombra ráközelítéshez, a vonallal jelölt zöld gombra távolításhoz, vagy a zöld nyilakra a szomszédos térképek eléréséhez.


METAR-TAF: